sensor_id;sensor_type;location;lat;lon;timestamp;noise_LAeq;noise_LA_min;noise_LA_max;noise_LA01;noise_LA95
77133;Laerm;26708;50.304;19.028;2023-07-08T00:07:54;45.38;42.60;48.94;;
77133;Laerm;26708;50.304;19.028;2023-07-08T00:10:56;45.55;43.14;48.76;;
77133;Laerm;26708;50.304;19.028;2023-07-08T00:25:37;46.81;42.99;56.25;;
77133;Laerm;26708;50.304;19.028;2023-07-08T00:28:17;46.83;43.18;61.50;;
77133;Laerm;26708;50.304;19.028;2023-07-08T00:30:47;47.38;42.73;55.23;;
77133;Laerm;26708;50.304;19.028;2023-07-08T00:32:53;45.11;42.66;47.50;;
77133;Laerm;26708;50.304;19.028;2023-07-08T00:34:58;46.82;43.57;53.49;;
77133;Laerm;26708;50.304;19.028;2023-07-08T00:37:04;45.40;43.15;48.13;;
77133;Laerm;26708;50.304;19.028;2023-07-08T00:39:14;45.24;42.99;49.21;;
77133;Laerm;26708;50.304;19.028;2023-07-08T00:41:28;45.09;42.66;47.22;;
77133;Laerm;26708;50.304;19.028;2023-07-08T00:43:39;45.60;43.36;48.59;;
77133;Laerm;26708;50.304;19.028;2023-07-08T00:45:50;45.43;43.53;47.63;;
77133;Laerm;26708;50.304;19.028;2023-07-08T00:48:06;45.55;43.11;48.28;;
77133;Laerm;26708;50.304;19.028;2023-07-08T00:50:14;49.46;43.38;62.29;;
77133;Laerm;26708;50.304;19.028;2023-07-08T00:52:23;45.41;42.78;47.84;;
77133;Laerm;26708;50.304;19.028;2023-07-08T00:54:28;45.48;43.31;48.06;;
77133;Laerm;26708;50.304;19.028;2023-07-08T00:56:44;45.73;43.00;49.69;;
77133;Laerm;26708;50.304;19.028;2023-07-08T00:59:00;51.85;43.06;68.34;;
77133;Laerm;26708;50.304;19.028;2023-07-08T01:01:08;46.09;42.83;51.75;;
77133;Laerm;26708;50.304;19.028;2023-07-08T01:03:15;45.18;42.89;47.99;;
77133;Laerm;26708;50.304;19.028;2023-07-08T01:05:25;45.35;42.88;53.62;;
77133;Laerm;26708;50.304;19.028;2023-07-08T01:07:34;45.50;43.09;48.87;;
77133;Laerm;26708;50.304;19.028;2023-07-08T01:09:47;45.54;42.80;52.09;;
77133;Laerm;26708;50.304;19.028;2023-07-08T01:12:01;45.72;42.50;51.46;;
77133;Laerm;26708;50.304;19.028;2023-07-08T01:14:12;50.03;43.42;65.32;;
77133;Laerm;26708;50.304;19.028;2023-07-08T01:39:12;45.34;42.86;47.69;;
77133;Laerm;26708;50.304;19.028;2023-07-08T01:41:19;45.41;42.32;48.97;;
77133;Laerm;26708;50.304;19.028;2023-07-08T01:43:24;45.51;42.88;50.98;;
77133;Laerm;26708;50.304;19.028;2023-07-08T01:45:36;45.53;42.98;48.62;;
77133;Laerm;26708;50.304;19.028;2023-07-08T01:47:47;45.76;43.02;48.48;;
77133;Laerm;26708;50.304;19.028;2023-07-08T01:49:54;45.29;42.40;49.16;;
77133;Laerm;26708;50.304;19.028;2023-07-08T01:51:59;45.92;42.50;59.06;;
77133;Laerm;26708;50.304;19.028;2023-07-08T01:54:08;45.51;42.90;60.38;;
77133;Laerm;26708;50.304;19.028;2023-07-08T01:56:15;47.80;43.28;63.00;;
77133;Laerm;26708;50.304;19.028;2023-07-08T01:58:21;50.28;43.60;66.51;;
77133;Laerm;26708;50.304;19.028;2023-07-08T02:00:35;51.37;43.29;67.93;;
77133;Laerm;26708;50.304;19.028;2023-07-08T02:02:51;50.63;44.60;58.17;;
77133;Laerm;26708;50.304;19.028;2023-07-08T02:04:57;46.26;43.87;48.94;;
77133;Laerm;26708;50.304;19.028;2023-07-08T02:07:02;50.08;44.25;65.24;;
77133;Laerm;26708;50.304;19.028;2023-07-08T02:09:09;47.07;43.33;55.78;;
77133;Laerm;26708;50.304;19.028;2023-07-08T02:11:15;46.36;42.95;55.22;;
77133;Laerm;26708;50.304;19.028;2023-07-08T02:13:21;49.87;42.95;61.41;;
77133;Laerm;26708;50.304;19.028;2023-07-08T02:15:50;48.22;42.87;65.00;;
77133;Laerm;26708;50.304;19.028;2023-07-08T02:18:58;45.30;42.96;47.75;;
77133;Laerm;26708;50.304;19.028;2023-07-08T02:21:25;45.57;42.58;55.79;;
77133;Laerm;26708;50.304;19.028;2023-07-08T02:23:33;50.68;42.86;67.70;;
77133;Laerm;26708;50.304;19.028;2023-07-08T02:25:40;45.25;42.84;47.86;;
77133;Laerm;26708;50.304;19.028;2023-07-08T02:27:47;45.62;42.71;50.64;;
77133;Laerm;26708;50.304;19.028;2023-07-08T02:29:52;45.55;42.83;52.85;;
77133;Laerm;26708;50.304;19.028;2023-07-08T02:32:17;45.31;42.86;54.70;;
77133;Laerm;26708;50.304;19.028;2023-07-08T02:34:21;46.00;43.48;49.51;;
77133;Laerm;26708;50.304;19.028;2023-07-08T02:36:27;45.95;43.36;52.30;;
77133;Laerm;26708;50.304;19.028;2023-07-08T02:38:32;48.54;43.32;63.71;;
77133;Laerm;26708;50.304;19.028;2023-07-08T02:40:39;45.50;42.73;49.23;;
77133;Laerm;26708;50.304;19.028;2023-07-08T02:42:45;52.84;43.23;72.49;;
77133;Laerm;26708;50.304;19.028;2023-07-08T02:44:50;50.72;43.26;65.94;;
77133;Laerm;26708;50.304;19.028;2023-07-08T02:46:56;45.69;43.18;55.53;;
77133;Laerm;26708;50.304;19.028;2023-07-08T02:49:02;45.18;42.66;48.37;;
77133;Laerm;26708;50.304;19.028;2023-07-08T02:51:07;45.40;42.69;49.78;;
77133;Laerm;26708;50.304;19.028;2023-07-08T02:53:12;49.20;42.97;65.63;;
77133;Laerm;26708;50.304;19.028;2023-07-08T02:55:18;46.05;42.98;53.14;;
77133;Laerm;26708;50.304;19.028;2023-07-08T02:57:26;46.91;43.41;63.44;;
77133;Laerm;26708;50.304;19.028;2023-07-08T02:59:30;45.20;42.66;48.86;;
77133;Laerm;26708;50.304;19.028;2023-07-08T03:01:36;46.33;43.22;54.12;;
77133;Laerm;26708;50.304;19.028;2023-07-08T03:03:43;48.92;44.55;66.78;;
77133;Laerm;26708;50.304;19.028;2023-07-08T03:05:55;48.61;43.95;59.00;;
77133;Laerm;26708;50.304;19.028;2023-07-08T03:08:01;46.01;43.09;52.32;;
77133;Laerm;26708;50.304;19.028;2023-07-08T03:10:06;49.48;43.30;66.36;;
77133;Laerm;26708;50.304;19.028;2023-07-08T03:12:12;48.05;43.31;65.96;;
77133;Laerm;26708;50.304;19.028;2023-07-08T03:14:20;46.45;43.52;53.93;;
77133;Laerm;26708;50.304;19.028;2023-07-08T03:16:25;45.79;43.38;49.54;;
77133;Laerm;26708;50.304;19.028;2023-07-08T03:18:30;45.47;43.34;48.29;;
77133;Laerm;26708;50.304;19.028;2023-07-08T03:20:41;45.55;43.01;49.63;;
77133;Laerm;26708;50.304;19.028;2023-07-08T03:22:50;45.72;43.31;57.38;;
77133;Laerm;26708;50.304;19.028;2023-07-08T03:24:55;52.93;43.09;71.26;;
77133;Laerm;26708;50.304;19.028;2023-07-08T03:27:01;47.60;43.48;61.60;;
77133;Laerm;26708;50.304;19.028;2023-07-08T03:29:15;46.76;43.86;54.46;;
77133;Laerm;26708;50.304;19.028;2023-07-08T03:31:45;51.84;43.68;69.33;;
77133;Laerm;26708;50.304;19.028;2023-07-08T03:33:51;46.39;43.01;54.69;;
77133;Laerm;26708;50.304;19.028;2023-07-08T03:35:56;46.45;43.59;54.21;;
77133;Laerm;26708;50.304;19.028;2023-07-08T03:38:01;46.00;43.72;52.93;;
77133;Laerm;26708;50.304;19.028;2023-07-08T03:40:10;51.48;43.52;68.24;;
77133;Laerm;26708;50.304;19.028;2023-07-08T03:42:15;45.77;42.68;49.64;;
77133;Laerm;26708;50.304;19.028;2023-07-08T03:44:20;45.95;43.33;50.45;;
77133;Laerm;26708;50.304;19.028;2023-07-08T03:46:58;49.19;43.18;62.32;;
77133;Laerm;26708;50.304;19.028;2023-07-08T03:49:05;46.94;43.65;54.75;;
77133;Laerm;26708;50.304;19.028;2023-07-08T03:51:22;50.16;43.83;66.47;;
77133;Laerm;26708;50.304;19.028;2023-07-08T03:53:32;46.38;43.83;54.09;;
77133;Laerm;26708;50.304;19.028;2023-07-08T03:55:37;50.71;43.55;65.43;;
77133;Laerm;26708;50.304;19.028;2023-07-08T03:57:42;51.33;43.88;67.29;;
77133;Laerm;26708;50.304;19.028;2023-07-08T03:59:48;46.45;44.05;52.75;;
77133;Laerm;26708;50.304;19.028;2023-07-08T04:01:55;48.66;43.44;62.71;;
77133;Laerm;26708;50.304;19.028;2023-07-08T04:04:02;50.92;43.84;67.45;;
77133;Laerm;26708;50.304;19.028;2023-07-08T04:06:12;50.97;43.68;67.30;;
77133;Laerm;26708;50.304;19.028;2023-07-08T04:08:17;54.37;43.95;69.79;;
77133;Laerm;26708;50.304;19.028;2023-07-08T04:10:22;47.04;43.79;52.19;;
77133;Laerm;26708;50.304;19.028;2023-07-08T04:12:28;53.37;43.48;68.61;;
77133;Laerm;26708;50.304;19.028;2023-07-08T04:14:32;46.79;43.80;50.75;;
77133;Laerm;26708;50.304;19.028;2023-07-08T04:17:01;50.61;43.70;65.50;;
77133;Laerm;26708;50.304;19.028;2023-07-08T04:19:08;50.74;43.60;63.62;;
77133;Laerm;26708;50.304;19.028;2023-07-08T04:21:20;54.71;44.25;69.82;;
77133;Laerm;26708;50.304;19.028;2023-07-08T04:23:37;52.00;43.85;65.61;;
77133;Laerm;26708;50.304;19.028;2023-07-08T04:25:58;52.23;44.09;67.63;;
77133;Laerm;26708;50.304;19.028;2023-07-08T04:28:18;48.76;43.70;62.36;;
77133;Laerm;26708;50.304;19.028;2023-07-08T04:30:26;49.91;44.21;64.92;;
77133;Laerm;26708;50.304;19.028;2023-07-08T04:32:39;46.97;43.44;55.65;;
77133;Laerm;26708;50.304;19.028;2023-07-08T04:34:47;52.43;43.36;65.69;;
77133;Laerm;26708;50.304;19.028;2023-07-08T04:36:52;52.85;44.18;79.21;;
77133;Laerm;26708;50.304;19.028;2023-07-08T04:38:58;51.28;43.85;67.57;;
77133;Laerm;26708;50.304;19.028;2023-07-08T04:41:02;53.64;43.48;66.23;;
77133;Laerm;26708;50.304;19.028;2023-07-08T04:43:07;50.93;43.42;65.58;;
77133;Laerm;26708;50.304;19.028;2023-07-08T04:45:15;50.74;42.83;66.12;;
77133;Laerm;26708;50.304;19.028;2023-07-08T04:47:20;52.37;43.94;66.18;;
77133;Laerm;26708;50.304;19.028;2023-07-08T04:49:28;57.62;44.59;68.59;;
77133;Laerm;26708;50.304;19.028;2023-07-08T04:51:37;53.41;43.83;67.51;;
77133;Laerm;26708;50.304;19.028;2023-07-08T04:53:42;48.07;43.00;59.08;;
77133;Laerm;26708;50.304;19.028;2023-07-08T04:55:51;51.54;43.40;66.97;;
77133;Laerm;26708;50.304;19.028;2023-07-08T04:57:57;53.28;43.54;67.43;;
77133;Laerm;26708;50.304;19.028;2023-07-08T05:00:05;51.95;43.40;70.65;;
77133;Laerm;26708;50.304;19.028;2023-07-08T05:02:11;49.20;44.40;64.38;;
77133;Laerm;26708;50.304;19.028;2023-07-08T05:04:20;55.37;43.91;68.89;;
77133;Laerm;26708;50.304;19.028;2023-07-08T05:06:28;53.11;43.42;66.48;;
77133;Laerm;26708;50.304;19.028;2023-07-08T05:08:32;52.68;43.71;64.83;;
77133;Laerm;26708;50.304;19.028;2023-07-08T05:10:39;52.36;44.13;65.70;;
77133;Laerm;26708;50.304;19.028;2023-07-08T05:12:44;54.08;43.94;68.79;;
77133;Laerm;26708;50.304;19.028;2023-07-08T05:14:49;53.87;42.96;66.35;;
77133;Laerm;26708;50.304;19.028;2023-07-08T05:16:57;53.11;43.79;67.03;;
77133;Laerm;26708;50.304;19.028;2023-07-08T05:19:02;49.51;43.56;65.32;;
77133;Laerm;26708;50.304;19.028;2023-07-08T05:21:08;50.87;43.77;64.97;;
77133;Laerm;26708;50.304;19.028;2023-07-08T05:23:16;51.46;43.95;64.80;;
77133;Laerm;26708;50.304;19.028;2023-07-08T05:25:21;51.30;43.68;67.02;;
77133;Laerm;26708;50.304;19.028;2023-07-08T05:27:27;49.81;43.34;68.50;;
77133;Laerm;26708;50.304;19.028;2023-07-08T05:29:32;52.45;44.24;67.53;;
77133;Laerm;26708;50.304;19.028;2023-07-08T05:31:37;55.75;44.80;69.15;;
77133;Laerm;26708;50.304;19.028;2023-07-08T05:33:41;55.23;45.39;65.97;;
77133;Laerm;26708;50.304;19.028;2023-07-08T05:35:47;50.62;43.73;65.59;;
77133;Laerm;26708;50.304;19.028;2023-07-08T05:37:52;57.80;44.76;71.02;;
77133;Laerm;26708;50.304;19.028;2023-07-08T05:39:59;52.35;44.12;68.35;;
77133;Laerm;26708;50.304;19.028;2023-07-08T05:42:07;53.34;43.99;69.82;;
77133;Laerm;26708;50.304;19.028;2023-07-08T05:44:14;56.65;43.60;72.01;;
77133;Laerm;26708;50.304;19.028;2023-07-08T05:46:37;51.98;43.32;67.47;;
77133;Laerm;26708;50.304;19.028;2023-07-08T05:48:43;53.82;43.54;65.83;;
77133;Laerm;26708;50.304;19.028;2023-07-08T05:50:48;53.07;44.79;72.77;;
77133;Laerm;26708;50.304;19.028;2023-07-08T05:52:52;51.68;43.75;67.31;;
77133;Laerm;26708;50.304;19.028;2023-07-08T05:55:01;48.64;43.65;68.59;;
77133;Laerm;26708;50.304;19.028;2023-07-08T05:57:09;54.45;44.36;69.78;;
77133;Laerm;26708;50.304;19.028;2023-07-08T05:59:14;52.78;43.41;70.06;;
77133;Laerm;26708;50.304;19.028;2023-07-08T06:01:21;52.95;45.09;64.23;;
77133;Laerm;26708;50.304;19.028;2023-07-08T06:03:26;50.68;44.80;71.99;;
77133;Laerm;26708;50.304;19.028;2023-07-08T06:05:32;50.47;43.72;65.91;;
77133;Laerm;26708;50.304;19.028;2023-07-08T06:07:39;57.34;43.84;74.15;;
77133;Laerm;26708;50.304;19.028;2023-07-08T06:09:45;55.05;43.64;69.01;;
77133;Laerm;26708;50.304;19.028;2023-07-08T06:11:52;56.84;43.59;73.55;;
77133;Laerm;26708;50.304;19.028;2023-07-08T06:13:58;56.96;43.80;73.14;;
77133;Laerm;26708;50.304;19.028;2023-07-08T06:16:02;55.49;43.03;69.36;;
77133;Laerm;26708;50.304;19.028;2023-07-08T06:18:07;52.88;43.52;71.21;;
77133;Laerm;26708;50.304;19.028;2023-07-08T06:20:12;51.05;44.40;65.95;;
77133;Laerm;26708;50.304;19.028;2023-07-08T06:22:17;52.38;44.21;70.70;;
77133;Laerm;26708;50.304;19.028;2023-07-08T06:24:22;56.28;43.49;74.49;;
77133;Laerm;26708;50.304;19.028;2023-07-08T06:26:27;53.59;43.27;68.63;;
77133;Laerm;26708;50.304;19.028;2023-07-08T06:28:35;54.63;43.06;71.78;;
77133;Laerm;26708;50.304;19.028;2023-07-08T06:30:39;52.42;43.90;69.03;;
77133;Laerm;26708;50.304;19.028;2023-07-08T06:32:45;49.10;43.11;62.71;;
77133;Laerm;26708;50.304;19.028;2023-07-08T06:34:49;54.07;43.62;70.18;;
77133;Laerm;26708;50.304;19.028;2023-07-08T06:36:54;56.02;44.05;72.10;;
77133;Laerm;26708;50.304;19.028;2023-07-08T06:38:59;59.46;44.31;74.40;;
77133;Laerm;26708;50.304;19.028;2023-07-08T06:41:04;53.02;44.12;65.96;;
77133;Laerm;26708;50.304;19.028;2023-07-08T06:43:09;55.07;43.99;66.92;;
77133;Laerm;26708;50.304;19.028;2023-07-08T06:45:40;56.63;44.11;73.08;;
77133;Laerm;26708;50.304;19.028;2023-07-08T06:47:45;55.84;44.21;69.26;;
77133;Laerm;26708;50.304;19.028;2023-07-08T06:49:50;53.87;44.25;65.53;;
77133;Laerm;26708;50.304;19.028;2023-07-08T06:51:56;50.60;43.59;63.69;;
77133;Laerm;26708;50.304;19.028;2023-07-08T06:54:02;47.39;43.59;63.54;;
77133;Laerm;26708;50.304;19.028;2023-07-08T06:56:12;55.63;43.81;70.01;;
77133;Laerm;26708;50.304;19.028;2023-07-08T06:58:18;56.65;44.69;73.36;;
77133;Laerm;26708;50.304;19.028;2023-07-08T07:00:23;57.70;44.97;71.63;;
77133;Laerm;26708;50.304;19.028;2023-07-08T07:02:35;55.73;44.23;69.42;;
77133;Laerm;26708;50.304;19.028;2023-07-08T07:04:41;52.25;44.26;64.01;;
77133;Laerm;26708;50.304;19.028;2023-07-08T07:06:45;54.83;43.71;68.30;;
77133;Laerm;26708;50.304;19.028;2023-07-08T07:08:50;56.74;44.70;73.53;;
77133;Laerm;26708;50.304;19.028;2023-07-08T07:10:56;56.91;44.74;68.73;;
77133;Laerm;26708;50.304;19.028;2023-07-08T07:13:05;61.43;44.95;80.33;;
77133;Laerm;26708;50.304;19.028;2023-07-08T07:15:10;54.89;44.79;69.04;;
77133;Laerm;26708;50.304;19.028;2023-07-08T07:17:16;56.12;44.33;67.84;;
77133;Laerm;26708;50.304;19.028;2023-07-08T07:19:23;54.41;45.01;66.62;;
77133;Laerm;26708;50.304;19.028;2023-07-08T07:21:28;52.90;43.45;69.17;;
77133;Laerm;26708;50.304;19.028;2023-07-08T07:23:33;52.81;44.47;67.23;;
77133;Laerm;26708;50.304;19.028;2023-07-08T07:25:39;54.73;44.40;65.34;;
77133;Laerm;26708;50.304;19.028;2023-07-08T07:27:44;51.94;44.91;63.19;;
77133;Laerm;26708;50.304;19.028;2023-07-08T07:29:51;60.69;44.61;77.85;;
77133;Laerm;26708;50.304;19.028;2023-07-08T07:31:56;53.68;44.79;67.36;;
77133;Laerm;26708;50.304;19.028;2023-07-08T07:34:01;56.75;43.73;69.81;;
77133;Laerm;26708;50.304;19.028;2023-07-08T07:36:07;53.82;43.82;69.23;;
77133;Laerm;26708;50.304;19.028;2023-07-08T07:38:14;53.67;44.53;65.08;;
77133;Laerm;26708;50.304;19.028;2023-07-08T07:40:19;56.81;44.86;71.10;;
77133;Laerm;26708;50.304;19.028;2023-07-08T07:42:27;63.93;45.37;81.63;;
77133;Laerm;26708;50.304;19.028;2023-07-08T07:44:32;57.29;45.05;79.70;;
77133;Laerm;26708;50.304;19.028;2023-07-08T07:46:37;54.68;46.75;67.70;;
77133;Laerm;26708;50.304;19.028;2023-07-08T07:48:42;56.48;46.93;67.22;;
77133;Laerm;26708;50.304;19.028;2023-07-08T07:50:48;59.04;47.17;71.63;;
77133;Laerm;26708;50.304;19.028;2023-07-08T07:52:55;53.70;46.21;68.97;;
77133;Laerm;26708;50.304;19.028;2023-07-08T07:55:03;55.72;46.34;67.22;;
77133;Laerm;26708;50.304;19.028;2023-07-08T07:57:07;57.06;47.06;68.33;;
77133;Laerm;26708;50.304;19.028;2023-07-08T07:59:12;57.52;46.59;71.26;;
77133;Laerm;26708;50.304;19.028;2023-07-08T08:01:17;55.78;47.03;66.87;;
77133;Laerm;26708;50.304;19.028;2023-07-08T08:03:23;57.66;46.38;69.72;;
77133;Laerm;26708;50.304;19.028;2023-07-08T08:05:27;55.21;46.45;66.51;;
77133;Laerm;26708;50.304;19.028;2023-07-08T08:07:34;56.95;46.40;74.26;;
77133;Laerm;26708;50.304;19.028;2023-07-08T08:09:41;54.42;46.82;64.07;;
77133;Laerm;26708;50.304;19.028;2023-07-08T08:11:45;54.70;46.29;66.97;;
77133;Laerm;26708;50.304;19.028;2023-07-08T08:13:51;54.80;46.75;66.94;;
77133;Laerm;26708;50.304;19.028;2023-07-08T08:15:59;55.94;47.37;65.29;;
77133;Laerm;26708;50.304;19.028;2023-07-08T08:18:04;57.37;46.90;71.50;;
77133;Laerm;26708;50.304;19.028;2023-07-08T08:20:10;58.39;47.32;73.75;;
77133;Laerm;26708;50.304;19.028;2023-07-08T08:22:14;56.06;47.17;73.49;;
77133;Laerm;26708;50.304;19.028;2023-07-08T08:24:19;54.69;46.69;75.56;;
77133;Laerm;26708;50.304;19.028;2023-07-08T08:26:27;52.72;46.26;67.36;;
77133;Laerm;26708;50.304;19.028;2023-07-08T08:28:32;56.59;46.81;66.73;;
77133;Laerm;26708;50.304;19.028;2023-07-08T08:30:37;57.92;47.28;68.81;;
77133;Laerm;26708;50.304;19.028;2023-07-08T08:32:42;56.98;46.53;67.18;;
77133;Laerm;26708;50.304;19.028;2023-07-08T08:34:44;55.14;46.95;67.45;;
77133;Laerm;26708;50.304;19.028;2023-07-08T08:36:48;53.69;46.55;69.81;;
77133;Laerm;26708;50.304;19.028;2023-07-08T08:38:57;66.63;46.86;86.67;;
77133;Laerm;26708;50.304;19.028;2023-07-08T08:41:05;56.01;46.85;70.83;;
77133;Laerm;26708;50.304;19.028;2023-07-08T08:43:24;56.64;47.33;69.29;;
77133;Laerm;26708;50.304;19.028;2023-07-08T08:45:47;53.71;46.49;66.31;;
77133;Laerm;26708;50.304;19.028;2023-07-08T08:48:00;53.74;46.86;67.85;;
77133;Laerm;26708;50.304;19.028;2023-07-08T08:50:29;58.90;47.69;75.40;;
77133;Laerm;26708;50.304;19.028;2023-07-08T08:52:42;57.62;47.41;67.09;;
77133;Laerm;26708;50.304;19.028;2023-07-08T08:54:47;57.24;48.03;70.94;;
77133;Laerm;26708;50.304;19.028;2023-07-08T08:57:13;55.44;46.64;66.11;;
77133;Laerm;26708;50.304;19.028;2023-07-08T08:59:42;54.52;47.30;68.08;;
77133;Laerm;26708;50.304;19.028;2023-07-08T09:01:50;55.63;47.00;69.75;;
77133;Laerm;26708;50.304;19.028;2023-07-08T09:04:01;58.48;46.82;72.33;;
77133;Laerm;26708;50.304;19.028;2023-07-08T09:06:13;56.94;46.82;71.20;;
77133;Laerm;26708;50.304;19.028;2023-07-08T09:08:31;56.50;46.75;67.94;;
77133;Laerm;26708;50.304;19.028;2023-07-08T09:10:46;55.51;46.73;70.37;;
77133;Laerm;26708;50.304;19.028;2023-07-08T09:12:57;55.98;47.25;69.77;;
77133;Laerm;26708;50.304;19.028;2023-07-08T09:15:15;56.17;47.42;66.80;;
77133;Laerm;26708;50.304;19.028;2023-07-08T09:17:25;55.34;46.40;67.62;;
77133;Laerm;26708;50.304;19.028;2023-07-08T09:19:41;57.12;48.22;68.59;;
77133;Laerm;26708;50.304;19.028;2023-07-08T09:21:57;57.68;48.25;69.37;;
77133;Laerm;26708;50.304;19.028;2023-07-08T09:24:26;55.43;47.45;70.73;;
77133;Laerm;26708;50.304;19.028;2023-07-08T09:26:35;57.89;47.08;68.21;;
77133;Laerm;26708;50.304;19.028;2023-07-08T09:28:43;58.03;48.03;69.64;;
77133;Laerm;26708;50.304;19.028;2023-07-08T09:31:00;55.97;46.74;68.56;;
77133;Laerm;26708;50.304;19.028;2023-07-08T09:33:09;57.81;47.47;73.00;;
77133;Laerm;26708;50.304;19.028;2023-07-08T09:35:21;57.30;46.97;68.55;;
77133;Laerm;26708;50.304;19.028;2023-07-08T09:37:29;57.65;47.13;75.01;;
77133;Laerm;26708;50.304;19.028;2023-07-08T09:39:36;56.32;46.87;69.04;;
77133;Laerm;26708;50.304;19.028;2023-07-08T09:41:43;55.57;46.52;72.13;;
77133;Laerm;26708;50.304;19.028;2023-07-08T09:43:48;55.56;46.95;68.74;;
77133;Laerm;26708;50.304;19.028;2023-07-08T09:46:00;53.69;46.91;65.44;;
77133;Laerm;26708;50.304;19.028;2023-07-08T09:48:16;54.26;47.59;64.15;;
77133;Laerm;26708;50.304;19.028;2023-07-08T09:50:25;55.56;47.68;68.81;;
77133;Laerm;26708;50.304;19.028;2023-07-08T09:52:32;58.08;46.93;68.07;;
77133;Laerm;26708;50.304;19.028;2023-07-08T09:54:41;54.47;46.78;64.44;;
77133;Laerm;26708;50.304;19.028;2023-07-08T09:56:59;54.95;48.08;66.90;;
77133;Laerm;26708;50.304;19.028;2023-07-08T09:59:13;56.19;47.13;67.39;;
77133;Laerm;26708;50.304;19.028;2023-07-08T10:01:26;58.16;47.64;69.64;;
77133;Laerm;26708;50.304;19.028;2023-07-08T10:03:34;57.41;46.64;70.21;;
77133;Laerm;26708;50.304;19.028;2023-07-08T10:05:43;51.96;46.49;62.31;;
77133;Laerm;26708;50.304;19.028;2023-07-08T10:07:56;55.23;46.23;69.72;;
77133;Laerm;26708;50.304;19.028;2023-07-08T10:10:10;53.01;46.55;68.44;;
77133;Laerm;26708;50.304;19.028;2023-07-08T10:12:18;56.50;47.61;71.53;;
77133;Laerm;26708;50.304;19.028;2023-07-08T10:14:34;55.47;46.99;66.88;;
77133;Laerm;26708;50.304;19.028;2023-07-08T10:16:44;53.29;46.92;67.16;;
77133;Laerm;26708;50.304;19.028;2023-07-08T10:18:49;53.82;47.32;63.60;;
77133;Laerm;26708;50.304;19.028;2023-07-08T10:21:08;58.90;47.72;73.14;;
77133;Laerm;26708;50.304;19.028;2023-07-08T10:23:42;53.65;46.35;71.34;;
77133;Laerm;26708;50.304;19.028;2023-07-08T10:26:03;55.31;47.26;71.03;;
77133;Laerm;26708;50.304;19.028;2023-07-08T10:28:29;54.08;46.56;65.64;;
77133;Laerm;26708;50.304;19.028;2023-07-08T10:30:56;54.56;47.86;67.94;;
77133;Laerm;26708;50.304;19.028;2023-07-08T10:36:25;57.98;47.32;72.05;;
77133;Laerm;26708;50.304;19.028;2023-07-08T10:38:54;56.05;46.79;70.30;;
77133;Laerm;26708;50.304;19.028;2023-07-08T10:41:18;56.40;47.19;70.34;;
77133;Laerm;26708;50.304;19.028;2023-07-08T10:43:54;55.54;46.90;67.88;;
77133;Laerm;26708;50.304;19.028;2023-07-08T10:46:24;56.01;46.98;68.01;;
77133;Laerm;26708;50.304;19.028;2023-07-08T10:49:12;55.86;47.58;68.78;;
77133;Laerm;26708;50.304;19.028;2023-07-08T10:51:38;54.44;46.77;69.87;;
77133;Laerm;26708;50.304;19.028;2023-07-08T10:54:08;53.68;46.84;66.90;;
77133;Laerm;26708;50.304;19.028;2023-07-08T10:56:23;58.21;47.27;76.67;;
77133;Laerm;26708;50.304;19.028;2023-07-08T10:59:01;55.95;47.70;70.98;;
77133;Laerm;26708;50.304;19.028;2023-07-08T11:01:25;55.09;46.74;70.27;;
77133;Laerm;26708;50.304;19.028;2023-07-08T11:06:39;56.12;47.62;69.50;;
77133;Laerm;26708;50.304;19.028;2023-07-08T11:08:59;56.59;47.36;69.27;;
77133;Laerm;26708;50.304;19.028;2023-07-08T11:11:17;54.52;47.42;65.89;;
77133;Laerm;26708;50.304;19.028;2023-07-08T11:13:35;55.11;46.98;66.34;;
77133;Laerm;26708;50.304;19.028;2023-07-08T11:15:57;54.45;46.08;68.26;;
77133;Laerm;26708;50.304;19.028;2023-07-08T11:18:15;53.87;46.54;65.69;;
77133;Laerm;26708;50.304;19.028;2023-07-08T11:20:36;55.82;46.41;72.45;;
77133;Laerm;26708;50.304;19.028;2023-07-08T11:22:54;56.19;45.99;68.50;;
77133;Laerm;26708;50.304;19.028;2023-07-08T11:25:17;54.07;46.58;67.27;;
77133;Laerm;26708;50.304;19.028;2023-07-08T11:27:30;55.78;46.52;70.82;;
77133;Laerm;26708;50.304;19.028;2023-07-08T11:29:46;55.29;47.04;67.70;;
77133;Laerm;26708;50.304;19.028;2023-07-08T11:31:55;55.99;47.66;69.27;;
77133;Laerm;26708;50.304;19.028;2023-07-08T11:34:02;56.40;47.07;70.25;;
77133;Laerm;26708;50.304;19.028;2023-07-08T11:36:14;55.33;46.71;68.59;;
77133;Laerm;26708;50.304;19.028;2023-07-08T11:38:21;58.78;46.97;75.75;;
77133;Laerm;26708;50.304;19.028;2023-07-08T11:40:25;56.36;47.48;66.12;;
77133;Laerm;26708;50.304;19.028;2023-07-08T11:42:39;57.12;47.36;71.02;;
77133;Laerm;26708;50.304;19.028;2023-07-08T11:44:54;56.02;47.07;75.88;;
77133;Laerm;26708;50.304;19.028;2023-07-08T11:46:59;55.46;46.29;67.89;;
77133;Laerm;26708;50.304;19.028;2023-07-08T11:49:13;54.39;46.74;66.47;;
77133;Laerm;26708;50.304;19.028;2023-07-08T11:51:28;54.50;47.15;67.87;;
77133;Laerm;26708;50.304;19.028;2023-07-08T11:53:46;57.78;47.11;68.22;;
77133;Laerm;26708;50.304;19.028;2023-07-08T11:55:58;53.02;46.20;67.22;;
77133;Laerm;26708;50.304;19.028;2023-07-08T11:58:01;52.74;46.52;65.56;;
77133;Laerm;26708;50.304;19.028;2023-07-08T12:00:25;55.89;46.94;75.09;;
77133;Laerm;26708;50.304;19.028;2023-07-08T12:03:18;57.05;46.46;71.15;;
77133;Laerm;26708;50.304;19.028;2023-07-08T12:05:37;54.90;45.88;68.54;;
77133;Laerm;26708;50.304;19.028;2023-07-08T12:08:18;56.67;46.21;70.99;;
77133;Laerm;26708;50.304;19.028;2023-07-08T12:10:33;54.88;46.73;67.65;;
77133;Laerm;26708;50.304;19.028;2023-07-08T12:13:14;55.52;46.04;71.48;;
77133;Laerm;26708;50.304;19.028;2023-07-08T12:20:51;52.87;46.31;70.55;;
77133;Laerm;26708;50.304;19.028;2023-07-08T12:23:21;54.93;46.58;66.62;;
77133;Laerm;26708;50.304;19.028;2023-07-08T12:28:43;53.55;46.65;63.93;;
77133;Laerm;26708;50.304;19.028;2023-07-08T12:30:50;51.77;46.34;64.63;;
77133;Laerm;26708;50.304;19.028;2023-07-08T12:32:58;50.28;46.27;59.04;;
77133;Laerm;26708;50.304;19.028;2023-07-08T12:35:05;52.16;46.16;64.29;;
77133;Laerm;26708;50.304;19.028;2023-07-08T12:37:22;53.22;46.02;68.26;;
77133;Laerm;26708;50.304;19.028;2023-07-08T12:39:33;51.83;46.35;64.74;;
77133;Laerm;26708;50.304;19.028;2023-07-08T12:41:39;55.85;46.71;66.99;;
77133;Laerm;26708;50.304;19.028;2023-07-08T12:43:47;54.42;46.50;65.53;;
77133;Laerm;26708;50.304;19.028;2023-07-08T12:45:52;54.88;47.33;66.46;;
77133;Laerm;26708;50.304;19.028;2023-07-08T12:47:57;55.59;46.11;68.99;;
77133;Laerm;26708;50.304;19.028;2023-07-08T12:50:03;53.66;46.67;65.84;;
77133;Laerm;26708;50.304;19.028;2023-07-08T12:52:20;54.75;46.30;68.31;;
77133;Laerm;26708;50.304;19.028;2023-07-08T12:54:31;54.78;46.37;65.93;;
77133;Laerm;26708;50.304;19.028;2023-07-08T12:56:40;52.18;46.28;64.96;;
77133;Laerm;26708;50.304;19.028;2023-07-08T12:58:52;56.36;46.46;71.54;;